Time;durP1;ratioP1;P1;durP2;ratioP2;P2;SDS_P1;SDS_P2;PMS_P1;PMS_P2;Temp;Humidity;BMP_temperature;BMP_pressure;BME280_temperature;BME280_humidity;BME280_pressure;Samples;Min_cycle;Max_cycle;Signal;HPM_P1;HPM_P2
2023/06/21 00:00:53;;;;;;;23.60;18.80;;;;;;;23.60;56.12;100617.64;105359;1289;59636;-87
2023/06/21 00:03:39;;;;;;;20.60;18.70;;;;;;;23.57;56.35;100621.89;105342;1288;59308;-87
2023/06/21 00:06:34;;;;;;;19.90;17.90;;;;;;;23.56;56.35;100622.91;105280;1289;73125;-86
2023/06/21 00:09:21;;;;;;;20.00;18.30;;;;;;;23.54;56.50;100626.39;105339;1287;67288;-87
2023/06/21 00:12:08;;;;;;;22.50;17.90;;;;;;;23.52;56.43;100627.17;105111;1288;72805;-87
2023/06/21 00:14:54;;;;;;;22.00;18.10;;;;;;;23.53;56.61;100625.88;105267;1289;61248;-87
2023/06/21 00:17:40;;;;;;;20.30;17.50;;;;;;;23.53;56.80;100629.92;105334;1290;59719;-87
2023/06/21 00:20:26;;;;;;;21.30;19.10;;;;;;;23.49;56.78;100632.32;105224;1289;72361;-87
2023/06/21 00:23:12;;;;;;;19.50;17.60;;;;;;;23.48;56.92;100637.34;105355;1289;68352;-87
2023/06/21 00:25:58;;;;;;;19.70;17.90;;;;;;;23.46;56.98;100633.56;105214;1288;71367;-87
2023/06/21 00:28:44;;;;;;;22.10;19.80;;;;;;;23.44;57.16;100639.85;105345;1290;61410;-87
2023/06/21 00:31:31;;;;;;;20.50;18.70;;;;;;;23.42;57.35;100643.14;105351;1291;59635;-86
2023/06/21 00:34:17;;;;;;;19.30;17.40;;;;;;;23.39;57.44;100652.35;105371;1287;73402;-87
2023/06/21 00:37:04;;;;;;;20.40;18.10;;;;;;;23.32;57.35;100655.70;105338;1288;69964;-87
2023/06/21 00:39:50;;;;;;;20.80;18.30;;;;;;;23.26;57.55;100656.11;105277;1288;74156;-87
2023/06/21 00:42:36;;;;;;;20.00;18.10;;;;;;;23.23;57.53;100651.36;105241;1286;62355;-87
2023/06/21 00:45:22;;;;;;;19.70;18.00;;;;;;;23.22;57.61;100643.02;105022;1289;59331;-87
2023/06/21 00:48:08;;;;;;;25.10;18.40;;;;;;;23.24;57.80;100635.47;105201;1288;73337;-87
2023/06/21 00:50:58;;;;;;;19.50;17.90;;;;;;;23.25;57.83;100622.40;105327;1287;67173;-87
2023/06/21 00:53:45;;;;;;;19.10;16.70;;;;;;;23.25;57.92;100624.50;106179;1287;72133;-87
2023/06/21 00:56:35;;;;;;;19.20;17.40;;;;;;;23.27;57.99;100623.13;105313;1288;61187;-87
2023/06/21 00:59:21;;;;;;;21.10;18.90;;;;;;;23.27;58.09;100617.84;105170;1291;61174;-87
2023/06/21 01:02:07;;;;;;;20.10;18.20;;;;;;;23.24;58.17;100618.39;105392;1288;75285;-87
2023/06/21 01:04:53;;;;;;;20.20;18.40;;;;;;;23.25;58.37;100612.04;105334;1287;67212;-87
2023/06/21 01:07:51;;;;;;;22.00;19.20;;;;;;;23.26;58.39;100614.58;105276;1289;74045;-87
2023/06/21 01:10:56;;;;;;;20.50;18.80;;;;;;;23.27;58.67;100608.52;105197;1287;60548;-87
2023/06/21 01:14:20;;;;;;;21.00;19.00;;;;;;;23.29;58.70;100607.35;105344;1287;61251;-87
2023/06/21 01:17:09;;;;;;;22.80;18.90;;;;;;;23.24;58.84;100607.50;105274;1288;73207;-87
2023/06/21 01:19:56;;;;;;;21.60;19.30;;;;;;;23.20;59.01;100605.86;105109;1293;67211;-87
2023/06/21 01:22:55;;;;;;;21.20;19.00;;;;;;;23.16;59.02;100600.00;105100;1288;71399;-87
2023/06/21 01:26:18;;;;;;;21.60;18.80;;;;;;;23.07;59.10;100614.79;105382;1286;61173;-87
2023/06/21 01:29:28;;;;;;;20.60;18.70;;;;;;;23.09;59.40;100612.58;105417;1287;61735;-87
2023/06/21 01:32:16;;;;;;;20.00;18.30;;;;;;;23.06;59.35;100618.92;105360;1287;72118;-87
2023/06/21 01:35:02;;;;;;;21.80;19.70;;;;;;;23.03;59.62;100618.24;106447;1288;67469;-88
2023/06/21 01:37:49;;;;;;;21.60;19.70;;;;;;;23.01;59.69;100616.95;105182;1287;71168;-87
2023/06/21 01:40:38;;;;;;;21.20;19.20;;;;;;;23.00;59.62;100615.13;105616;1289;273319;-87
2023/06/21 01:43:24;;;;;;;22.70;20.40;;;;;;;23.03;59.77;100623.36;105074;1285;61234;-88
2023/06/21 01:46:12;;;;;;;21.40;19.40;;;;;;;23.05;59.94;100622.83;105017;1285;319610;-87
2023/06/21 01:49:00;;;;;;;20.30;18.40;;;;;;;23.05;60.01;100621.96;105276;1290;67934;-87
2023/06/21 01:51:46;;;;;;;22.60;20.40;;;;;;;23.05;60.03;100623.59;105472;1290;72241;-87
2023/06/21 01:54:34;;;;;;;23.40;21.10;;;;;;;23.03;59.97;100621.92;105354;1289;59695;-87
2023/06/21 01:57:23;;;;;;;21.70;19.50;;;;;;;23.00;60.08;100620.95;105528;1286;61218;-87
2023/06/21 02:00:17;;;;;;;22.00;19.80;;;;;;;22.96;60.15;100621.89;105367;1285;74314;-87
2023/06/21 02:03:06;;;;;;;26.60;20.00;;;;;;;22.86;60.19;100624.02;105505;1285;67231;-87
2023/06/21 02:05:53;;;;;;;23.10;20.70;;;;;;;22.75;60.16;100624.89;105320;1286;75381;-87
2023/06/21 02:08:41;;;;;;;21.30;19.40;;;;;;;22.73;60.49;100624.88;105511;1286;61177;-87
2023/06/21 02:11:27;;;;;;;25.10;22.50;;;;;;;22.72;60.49;100622.08;105204;1286;61068;-87
2023/06/21 02:14:14;;;;;;;;;;;;;;;22.61;60.46;100611.05;105335;1286;74291;-87
2023/06/21 02:17:00;;;;;;;21.40;19.40;;;;;;;22.47;60.66;100614.82;105403;1291;67107;-87
2023/06/21 02:19:46;;;;;;;24.20;19.70;;;;;;;22.33;60.70;100616.08;105364;1286;72486;-87
2023/06/21 02:22:33;;;;;;;24.90;19.30;;;;;;;22.23;60.84;100618.13;105363;1286;61199;-87
2023/06/21 02:25:19;;;;;;;;;;;;;;;22.13;60.77;100612.79;105328;1285;62811;-87
2023/06/21 02:28:05;;;;;;;;;;;;;;;22.01;61.09;100609.55;105448;1288;76056;-87
2023/06/21 02:30:51;;;;;;;22.10;19.30;;;;;;;21.90;61.06;100599.66;105505;1286;67104;-87
2023/06/21 02:33:41;;;;;;;21.70;19.50;;;;;;;21.86;61.43;100600.33;105089;1285;71262;-87
2023/06/21 02:36:29;;;;;;;21.70;19.60;;;;;;;21.81;61.28;100596.44;105233;1291;61097;-87
2023/06/21 02:39:15;;;;;;;21.30;19.30;;;;;;;21.74;61.48;100583.86;105295;1285;60895;-87
2023/06/21 02:42:01;;;;;;;22.50;19.80;;;;;;;21.70;61.57;100578.36;105299;1285;73493;-86
2023/06/21 02:44:47;;;;;;;26.70;20.00;;;;;;;21.68;61.71;100569.86;105527;1288;66645;-87
2023/06/21 02:47:34;;;;;;;21.00;19.10;;;;;;;21.67;61.81;100566.41;105287;1286;71393;-87
2023/06/21 02:50:20;;;;;;;18.80;16.90;;;;;;;21.66;61.78;100573.52;105227;1285;61166;-87
2023/06/21 02:53:06;;;;;;;19.40;17.20;;;;;;;21.69;62.05;100581.88;105269;1289;59183;-87
2023/06/21 02:55:52;;;;;;;19.50;17.60;;;;;;;21.77;61.92;100577.86;105287;1285;74574;-86
2023/06/21 02:58:38;;;;;;;18.70;17.00;;;;;;;21.77;61.98;100573.50;105500;1286;69350;-86
2023/06/21 03:01:24;;;;;;;19.00;17.10;;;;;;;21.78;62.12;100576.05;105337;1289;71379;-86
2023/06/21 03:04:11;;;;;;;18.10;16.50;;;;;;;21.83;62.09;100582.11;105391;1288;61245;-87
2023/06/21 03:07:01;;;;;;;18.30;16.50;;;;;;;21.87;62.19;100585.50;105470;1285;61199;-87
2023/06/21 03:09:47;;;;;;;21.40;15.90;;;;;;;21.93;62.08;100587.02;105058;1286;73965;-87
2023/06/21 03:12:33;;;;;;;17.50;15.90;;;;;;;21.88;62.04;100596.86;105278;1285;67898;-87
2023/06/21 03:15:19;;;;;;;15.90;14.60;;;;;;;21.84;62.21;100602.67;105403;1289;71264;-87
2023/06/21 03:18:06;;;;;;;16.30;14.90;;;;;;;21.85;62.30;100605.42;105305;1286;61264;-87
2023/06/21 03:20:52;;;;;;;16.30;14.80;;;;;;;21.86;62.29;100610.29;105269;1286;61309;-87
2023/06/21 03:23:38;;;;;;;18.20;16.10;;;;;;;21.89;62.21;100624.55;105350;1286;74171;-87
2023/06/21 03:26:24;;;;;;;15.60;14.20;;;;;;;21.92;62.37;100625.55;105293;1288;68780;-87
2023/06/21 03:29:10;;;;;;;16.30;14.40;;;;;;;21.99;62.42;100627.02;105296;1286;71665;-87
2023/06/21 03:31:56;;;;;;;16.70;14.90;;;;;;;22.03;62.36;100631.32;105287;1288;61630;-87
2023/06/21 03:34:42;;;;;;;14.90;13.60;;;;;;;22.05;62.24;100631.56;105249;1289;59969;-87
2023/06/21 03:37:29;;;;;;;16.90;15.40;;;;;;;22.03;62.35;100628.34;105297;1288;73360;-88
2023/06/21 03:40:15;;;;;;;14.70;12.80;;;;;;;22.06;62.36;100620.29;105457;1288;68565;-87
2023/06/21 03:43:01;;;;;;;15.40;14.00;;;;;;;22.10;62.45;100621.27;105485;1285;71191;-87
2023/06/21 03:45:47;;;;;;;14.10;12.60;;;;;;;22.14;62.42;100621.17;105289;1285;61281;-87
2023/06/21 03:48:34;;;;;;;14.10;12.90;;;;;;;22.17;62.50;100622.02;105295;1286;61158;-87
2023/06/21 03:51:20;;;;;;;13.50;12.20;;;;;;;22.21;62.44;100618.77;105148;1285;73251;-87
2023/06/21 03:54:06;;;;;;;;;;;;;;;22.26;62.37;100620.55;105324;1286;72654;-87
2023/06/21 03:56:52;;;;;;;;;;;;;;;22.29;62.40;100620.91;105317;1287;71204;-87
2023/06/21 03:59:38;;;;;;;12.50;11.40;;;;;;;22.35;62.43;100623.11;105292;1285;61308;-87
2023/06/21 04:02:25;;;;;;;14.10;12.70;;;;;;;22.46;62.60;100618.34;105283;1285;62026;-87
2023/06/21 04:05:11;;;;;;;13.10;11.40;;;;;;;22.59;62.42;100621.38;105100;1285;73272;-87
2023/06/21 04:07:58;;;;;;;12.50;11.20;;;;;;;22.70;62.58;100621.73;105215;1286;71700;-87
2023/06/21 04:10:45;;;;;;;15.60;10.90;;;;;;;22.88;62.57;100623.13;105158;1287;71524;-87
2023/06/21 04:13:31;;;;;;;12.20;11.00;;;;;;;23.15;62.56;100626.79;104956;1286;61902;-86
2023/06/21 04:16:17;;;;;;;11.70;10.60;;;;;;;23.34;62.35;100626.14;105308;1289;61309;-87
2023/06/21 04:19:03;;;;;;;11.50;10.50;;;;;;;23.39;62.15;100627.36;105236;1285;73256;-87
2023/06/21 04:21:49;;;;;;;10.40;9.70;;;;;;;23.43;62.18;100629.53;105199;1285;67327;-87
2023/06/21 04:24:36;;;;;;;12.00;9.00;;;;;;;23.51;62.12;100627.76;105255;1286;72329;-86
2023/06/21 04:27:23;;;;;;;10.70;9.60;;;;;;;23.60;62.12;100627.66;105048;1285;61187;-87
2023/06/21 04:30:09;;;;;;;10.80;9.80;;;;;;;23.72;62.08;100627.88;105095;1286;59466;-87
2023/06/21 04:32:55;;;;;;;9.30;8.50;;;;;;;23.87;62.13;100622.65;105464;1287;74235;-87
2023/06/21 04:35:41;;;;;;;11.00;9.10;;;;;;;23.95;62.11;100619.15;105416;1288;67999;-88
2023/06/21 04:38:28;;;;;;;9.30;8.50;;;;;;;24.05;62.01;100618.08;105278;1286;72484;-87
2023/06/21 04:41:18;;;;;;;9.40;8.50;;;;;;;24.16;61.99;100610.85;105212;1287;61174;-88
2023/06/21 04:44:05;;;;;;;9.10;7.80;;;;;;;24.24;61.82;100608.46;105397;1285;61263;-87
2023/06/21 04:46:51;;;;;;;10.80;7.90;;;;;;;24.26;61.62;100606.55;105535;1286;73164;-87
2023/06/21 04:49:37;;;;;;;8.90;8.20;;;;;;;24.29;61.57;100604.05;105401;1285;70296;-87
2023/06/21 04:52:23;;;;;;;8.90;7.90;;;;;;;24.34;61.55;100604.55;105306;1285;71394;-87
2023/06/21 04:55:12;;;;;;;8.60;7.80;;;;;;;24.41;61.37;100600.35;105306;1286;59315;-88
2023/06/21 04:58:02;;;;;;;8.90;8.20;;;;;;;24.49;61.49;100590.96;105229;1289;61192;-87
2023/06/21 05:00:48;;;;;;;9.10;8.20;;;;;;;24.56;61.39;100583.73;105286;1285;73378;-88
2023/06/21 05:03:34;;;;;;;7.80;7.20;;;;;;;24.59;61.38;100580.27;105391;1285;67208;-88
2023/06/21 05:06:22;;;;;;;8.70;7.80;;;;;;;24.61;61.41;100575.77;105248;1285;75435;-88
2023/06/21 05:09:11;;;;;;;8.90;7.60;;;;;;;24.62;61.24;100573.41;105302;1285;61139;-88
2023/06/21 05:11:57;;;;;;;8.80;8.10;;;;;;;24.64;61.46;100575.14;105273;1285;61270;-88
2023/06/21 05:14:43;;;;;;;8.50;7.70;;;;;;;24.73;61.29;100578.00;105244;1286;76033;-87
2023/06/21 05:17:29;;;;;;;8.60;7.90;;;;;;;24.90;61.43;100585.38;105393;1286;70060;-88
2023/06/21 05:20:18;;;;;;;8.50;7.80;;;;;;;25.30;61.46;100582.11;105240;1286;71270;-88
2023/06/21 05:23:05;;;;;;;8.60;7.80;;;;;;;25.73;61.29;100585.17;105237;1286;60690;-88
2023/06/21 05:25:51;;;;;;;7.40;6.90;;;;;;;26.18;61.08;100588.60;105386;1286;61321;-88
2023/06/21 05:28:37;;;;;;;7.10;6.50;;;;;;;26.59;60.65;100589.61;105252;1285;72454;-88
2023/06/21 05:31:23;;;;;;;8.30;7.50;;;;;;;26.80;60.39;100592.98;105232;1291;67390;-88
2023/06/21 05:34:10;;;;;;;7.30;6.70;;;;;;;26.81;60.28;100599.61;105166;1285;72771;-88
2023/06/21 05:36:57;;;;;;;7.30;6.60;;;;;;;26.73;60.18;100589.66;105249;1285;61217;-88
2023/06/21 05:39:44;;;;;;;9.00;7.90;;;;;;;26.57;60.08;100584.63;105672;1286;59180;-88
2023/06/21 05:42:30;;;;;;;7.30;6.80;;;;;;;26.44;60.16;100589.31;105248;1285;72381;-88
2023/06/21 05:45:17;;;;;;;7.60;6.90;;;;;;;26.30;60.10;100589.98;105272;1286;67203;-88
2023/06/21 05:48:04;;;;;;;7.20;6.70;;;;;;;26.17;60.03;100604.92;105342;1288;72185;-88
2023/06/21 05:50:50;;;;;;;;;;;;;;;26.06;59.99;100602.13;105377;1285;61808;-88
2023/06/21 05:53:36;;;;;;;6.20;5.80;;;;;;;25.96;59.86;100608.10;101434;1285;5161092;-87
2023/06/21 05:56:27;;;;;;;6.60;6.10;;;;;;;25.93;59.80;100618.56;105330;1285;67621;-88
2023/06/21 05:59:13;;;;;;;7.00;6.30;;;;;;;25.85;59.56;100622.38;105486;1285;72765;-88
2023/06/21 06:01:59;;;;;;;14.60;7.20;;;;;;;25.75;59.46;100635.77;105559;1286;61212;-88
2023/06/21 06:04:45;;;;;;;6.80;6.30;;;;;;;25.74;59.47;100640.42;105566;1285;59733;-88
2023/06/21 06:07:31;;;;;;;7.20;6.60;;;;;;;25.95;59.58;100644.03;105334;1288;74567;-88
2023/06/21 06:10:17;;;;;;;7.80;5.90;;;;;;;26.31;59.53;100648.71;105422;1285;67994;-88
2023/06/21 06:13:03;;;;;;;7.70;5.80;;;;;;;26.69;59.27;100642.55;105409;1285;72505;-89
2023/06/21 06:15:49;;;;;;;8.20;6.30;;;;;;;26.99;59.17;100641.49;105403;1285;61305;-88
2023/06/21 06:18:35;;;;;;;7.10;6.40;;;;;;;27.25;59.02;100652.37;105420;1285;63581;-88
2023/06/21 06:21:22;;;;;;;10.20;6.50;;;;;;;27.36;58.81;100661.50;105567;1285;73905;-88
2023/06/21 06:24:08;;;;;;;7.30;6.60;;;;;;;27.45;58.76;100666.19;105508;1286;69387;-88
2023/06/21 06:26:54;;;;;;;9.70;6.40;;;;;;;27.35;58.55;100663.30;105601;1290;71838;-87
2023/06/21 06:29:40;;;;;;;7.20;6.50;;;;;;;27.23;58.65;100672.34;105596;1285;59464;-88
2023/06/21 06:32:27;;;;;;;7.10;6.60;;;;;;;27.02;58.64;100666.85;105608;1285;59299;-88
2023/06/21 06:35:13;;;;;;;8.60;6.80;;;;;;;26.86;58.70;100668.07;105599;1285;74416;-88
2023/06/21 06:37:59;;;;;;;8.30;6.80;;;;;;;26.74;58.79;100669.23;105676;1285;70094;-87
2023/06/21 06:40:45;;;;;;;10.90;6.40;;;;;;;26.63;58.74;100668.55;105513;1285;71757;-87
2023/06/21 06:43:34;;;;;;;7.10;6.50;;;;;;;26.49;58.66;100670.77;105447;1285;61002;-88
2023/06/21 06:46:20;;;;;;;9.30;7.10;;;;;;;26.33;58.75;100668.36;105599;1286;59436;-88
2023/06/21 06:49:06;;;;;;;6.80;6.20;;;;;;;26.26;58.81;100665.87;105693;1285;73602;-88
2023/06/21 06:51:52;;;;;;;7.30;6.70;;;;;;;26.20;58.75;100658.80;105451;1285;67147;-88
2023/06/21 06:54:38;;;;;;;7.10;6.50;;;;;;;26.14;58.77;100659.98;105593;1286;71155;-87
2023/06/21 06:57:24;;;;;;;7.80;6.10;;;;;;;26.07;58.80;100669.34;105545;1285;61301;-87
2023/06/21 07:00:12;;;;;;;6.50;5.90;;;;;;;25.95;58.78;100673.73;105615;1285;59302;-87
2023/06/21 07:02:59;;;;;;;7.40;6.30;;;;;;;25.81;58.75;100671.84;105389;1286;73246;-87
2023/06/21 07:05:46;;;;;;;11.00;5.40;;;;;;;25.69;58.78;100664.25;105595;1288;67310;-87
2023/06/21 07:08:32;;;;;;;6.40;5.80;;;;;;;25.58;58.91;100665.32;105570;1288;72457;-87
2023/06/21 07:11:18;;;;;;;7.10;6.30;;;;;;;25.48;58.87;100670.83;105394;1286;61116;-87
2023/06/21 07:14:05;;;;;;;7.10;5.90;;;;;;;25.39;59.06;100666.97;105448;1285;60096;-87
2023/06/21 07:16:51;;;;;;;6.30;5.80;;;;;;;25.26;59.04;100665.84;105656;1285;74625;-87
2023/06/21 07:19:38;;;;;;;7.00;5.90;;;;;;;25.14;59.07;100660.27;105513;1285;67877;-87
2023/06/21 07:22:24;;;;;;;6.80;5.90;;;;;;;24.99;59.21;100653.95;105638;1286;73576;-87
2023/06/21 07:25:10;;;;;;;7.10;6.30;;;;;;;24.88;59.32;100663.13;105473;1285;59625;-87
2023/06/21 07:27:59;;;;;;;8.60;5.90;;;;;;;24.80;59.46;100675.55;105596;1285;61186;-87
2023/06/21 07:30:46;;;;;;;8.10;6.00;;;;;;;24.80;59.57;100698.65;105421;1285;73547;-87
2023/06/21 07:33:32;;;;;;;7.20;6.10;;;;;;;24.77;59.57;100711.91;105458;1285;67954;-87
2023/06/21 07:36:21;;;;;;;8.20;6.40;;;;;;;24.71;59.76;100719.55;105590;1290;71392;-87
2023/06/21 07:39:08;;;;;;;6.60;6.00;;;;;;;24.66;59.79;100722.73;105279;1285;62009;-87
2023/06/21 07:41:56;;;;;;;7.40;6.50;;;;;;;24.57;60.01;100715.82;105561;1285;61014;-87
2023/06/21 07:44:42;;;;;;;8.20;6.40;;;;;;;24.44;60.03;100712.38;105368;1286;73727;-87
2023/06/21 07:47:29;;;;;;;8.20;6.80;;;;;;;24.32;60.22;100715.05;105282;1285;67803;-87
2023/06/21 07:50:33;;;;;;;9.10;6.90;;;;;;;24.25;60.40;100716.25;105363;1285;74096;-86
2023/06/21 07:53:19;;;;;;;7.90;7.10;;;;;;;24.18;60.55;100715.31;105579;1285;60212;-87
2023/06/21 07:56:05;;;;;;;7.50;6.80;;;;;;;24.08;60.67;100713.32;105382;1286;61140;-86
2023/06/21 07:58:52;;;;;;;8.90;7.30;;;;;;;23.99;60.90;100713.67;105506;1285;74444;-86
2023/06/21 08:01:38;;;;;;;7.40;6.80;;;;;;;23.83;61.28;100709.89;105360;1286;72475;-86
2023/06/21 08:04:24;;;;;;;9.20;8.00;;;;;;;23.73;61.56;100708.29;105422;1285;74106;-87
2023/06/21 08:07:10;;;;;;;9.10;7.70;;;;;;;23.66;61.66;100712.48;105440;1285;61119;-86
2023/06/21 08:09:56;;;;;;;9.40;7.70;;;;;;;23.67;61.99;100712.73;105595;1285;59707;-86
2023/06/21 08:12:43;;;;;;;8.30;7.60;;;;;;;23.71;62.13;100718.98;105603;1285;73263;-86
2023/06/21 08:15:29;;;;;;;10.20;9.20;;;;;;;23.79;62.22;100725.46;105602;1286;68375;-87
2023/06/21 08:18:15;;;;;;;8.80;8.10;;;;;;;23.85;62.45;100733.66;105540;1286;71290;-86
2023/06/21 08:21:01;;;;;;;10.40;7.80;;;;;;;23.90;62.62;100728.02;105494;1285;58692;-86
2023/06/21 08:23:47;;;;;;;9.20;8.40;;;;;;;23.87;62.65;100733.74;105353;1285;60563;-86
2023/06/21 08:26:34;;;;;;;11.30;8.30;;;;;;;23.92;62.79;100729.81;105505;1285;73313;-86
2023/06/21 08:29:20;;;;;;;;;;;;;;;24.02;63.06;100725.95;105381;1285;68885;-86
2023/06/21 08:32:06;;;;;;;;;;;;;;;24.10;63.01;100724.50;105450;1285;71294;-86
2023/06/21 08:34:55;;;;;;;;;;;;;;;24.20;63.06;100726.59;105609;1289;61176;-86
2023/06/21 08:37:59;;;;;;;8.80;8.00;;;;;;;24.47;63.49;100728.73;105583;1285;61508;-87
2023/06/21 08:40:45;;;;;;;9.30;8.10;;;;;;;24.99;63.41;100729.31;105503;1285;73381;-86
2023/06/21 08:43:31;;;;;;;;;;;;;;;26.02;63.40;100730.34;105655;1288;67271;-87
2023/06/21 08:46:18;;;;;;;;;;;;;;;26.85;62.78;100733.18;105470;1286;72121;-87
2023/06/21 08:49:08;;;;;;;11.80;10.70;;;;;;;27.95;62.88;100733.42;105641;1290;62717;-87
2023/06/21 08:51:57;;;;;;;10.30;9.40;;;;;;;28.94;61.31;100739.30;105434;1285;60246;-87
2023/06/21 08:54:50;;;;;;;13.50;10.80;;;;;;;28.72;61.32;100742.23;105330;1285;73918;-87
2023/06/21 08:57:46;;;;;;;12.40;10.70;;;;;;;28.54;61.71;100737.30;106471;1285;67209;-87
2023/06/21 09:00:49;;;;;;;12.70;11.50;;;;;;;28.32;61.54;100736.34;106369;1285;71395;-87
2023/06/21 09:03:54;;;;;;;17.00;12.60;;;;;;;28.12;61.76;100729.28;106423;1287;59014;-87
2023/06/21 09:06:43;;;;;;;13.30;12.00;;;;;;;27.82;61.66;100731.60;106329;1285;59623;-87
2023/06/21 09:09:30;;;;;;;13.10;12.00;;;;;;;27.63;61.63;100734.07;106462;1285;74099;-87
2023/06/21 09:12:17;;;;;;;13.60;12.40;;;;;;;27.43;61.73;100734.95;106220;1291;67322;-87
2023/06/21 09:15:03;;;;;;;15.10;13.70;;;;;;;27.25;61.77;100733.58;105736;1285;71401;-87
2023/06/21 09:17:50;;;;;;;16.70;13.80;;;;;;;27.09;61.77;100732.63;105438;1293;61129;-86
2023/06/21 09:20:38;;;;;;;14.00;12.80;;;;;;;27.01;61.84;100738.84;105464;1285;61423;-87
2023/06/21 09:23:24;;;;;;;14.50;13.10;;;;;;;26.96;61.84;100747.49;105655;1285;74660;-87
2023/06/21 09:26:11;;;;;;;14.90;13.50;;;;;;;26.86;61.76;100742.48;105618;1285;69892;-87
2023/06/21 09:28:57;;;;;;;15.20;13.80;;;;;;;26.71;61.74;100744.59;105602;1285;71167;-87
2023/06/21 09:31:43;;;;;;;16.30;14.60;;;;;;;26.62;61.87;100748.54;105387;1285;61192;-87
2023/06/21 09:34:29;;;;;;;15.90;14.40;;;;;;;26.51;61.83;100746.11;105553;1285;61128;-87
2023/06/21 09:37:36;;;;;;;19.90;15.10;;;;;;;26.38;61.93;100745.21;105430;1287;73265;-87
2023/06/21 09:40:22;;;;;;;15.40;13.90;;;;;;;26.32;61.98;100746.94;105425;1286;69665;-87
2023/06/21 09:43:09;;;;;;;16.70;15.10;;;;;;;26.24;61.96;100745.93;105470;1285;72566;-87
2023/06/21 09:46:07;;;;;;;15.70;14.40;;;;;;;26.26;62.21;100748.23;105618;1285;59927;-87
2023/06/21 09:48:53;;;;;;;17.80;14.30;;;;;;;26.34;62.07;100747.09;105622;1285;61679;-87
2023/06/21 09:51:44;;;;;;;16.00;14.40;;;;;;;26.43;62.07;100752.83;105503;1285;74536;-87
2023/06/21 09:54:41;;;;;;;15.20;13.60;;;;;;;26.53;62.12;100754.57;105466;1290;67394;-87
2023/06/21 09:57:31;;;;;;;15.70;14.10;;;;;;;26.74;62.23;100755.86;105696;1285;71999;-87
2023/06/21 10:00:17;;;;;;;14.10;12.50;;;;;;;26.91;62.04;100748.42;105543;1285;58649;-86
2023/06/21 10:03:03;;;;;;;;;;;;;;;27.02;62.09;100742.06;105762;1290;59530;-86
2023/06/21 10:05:58;;;;;;;14.40;13.00;;;;;;;27.14;62.12;100744.27;105581;1286;73787;-86
2023/06/21 10:08:49;;;;;;;14.60;13.20;;;;;;;27.24;62.08;100749.09;105455;1286;71192;-86
2023/06/21 10:11:37;;;;;;;14.30;13.10;;;;;;;27.29;61.86;100745.45;105578;1285;71842;-87
2023/06/21 10:14:29;;;;;;;17.60;12.60;;;;;;;27.35;61.99;100749.40;105590;1285;61250;-87
2023/06/21 10:17:16;;;;;;;15.30;13.00;;;;;;;27.38;61.77;100738.02;105661;1290;61107;-87
2023/06/21 10:20:03;;;;;;;13.90;12.40;;;;;;;27.32;61.62;100732.11;105423;1285;75586;-86
2023/06/21 10:22:51;;;;;;;16.20;13.10;;;;;;;27.31;61.72;100741.23;105422;1291;67166;-87
2023/06/21 10:25:40;;;;;;;12.70;11.50;;;;;;;27.38;61.87;100734.27;105476;1288;73985;-87
2023/06/21 10:28:28;;;;;;;12.80;11.80;;;;;;;27.47;61.74;100739.14;105429;1285;59622;-87
2023/06/21 10:31:15;;;;;;;16.50;12.50;;;;;;;27.52;61.57;100736.77;105371;1285;59418;-87
2023/06/21 10:34:05;;;;;;;12.60;11.60;;;;;;;27.55;61.66;100730.52;105579;1285;77462;-87
2023/06/21 10:37:00;;;;;;;12.50;11.20;;;;;;;27.59;61.47;100727.85;105441;1286;68307;-87
2023/06/21 10:39:51;;;;;;;12.70;11.10;;;;;;;27.67;61.47;100720.98;105443;1285;72094;-87
2023/06/21 10:42:38;;;;;;;11.70;10.60;;;;;;;27.77;61.34;100721.75;105598;1285;61305;-87
2023/06/21 10:45:24;;;;;;;11.40;10.30;;;;;;;27.81;61.20;100722.05;105475;1285;61190;-87
2023/06/21 10:48:11;;;;;;;11.70;10.50;;;;;;;27.83;61.02;100721.88;105476;1290;74555;-87
2023/06/21 10:51:01;;;;;;;12.30;9.70;;;;;;;27.85;60.98;100721.23;105500;1285;68061;-87
2023/06/21 10:53:50;;;;;;;10.90;9.80;;;;;;;27.89;60.94;100720.11;105478;1285;71176;-87
2023/06/21 10:56:36;;;;;;;15.90;11.20;;;;;;;27.97;60.82;100713.27;105590;1285;59463;-87
2023/06/21 10:59:24;;;;;;;12.80;10.00;;;;;;;28.04;60.74;100718.09;105351;1286;59357;-87
2023/06/21 11:02:10;;;;;;;10.60;9.50;;;;;;;28.14;60.69;100718.30;106292;1286;73424;-87
2023/06/21 11:05:15;;;;;;;10.70;9.90;;;;;;;28.20;60.31;100717.21;106326;1285;68726;-87
2023/06/21 11:08:04;;;;;;;10.00;8.60;;;;;;;28.25;60.26;100717.27;106384;1288;71942;-87
2023/06/21 11:10:53;;;;;;;12.20;8.70;;;;;;;28.31;60.10;100718.52;106245;1285;58930;-87
2023/06/21 11:13:39;;;;;;;10.10;8.40;;;;;;;28.34;59.85;100718.31;106444;1289;59350;-88
2023/06/21 11:16:26;;;;;;;9.00;8.10;;;;;;;28.41;59.68;100712.37;106299;1285;74741;-87
2023/06/21 11:19:13;;;;;;;;;;;;;;;28.46;59.31;100719.88;106476;1285;68591;-87
2023/06/21 11:22:13;;;;;;;7.90;6.70;;;;;;;28.49;59.16;100718.94;106449;1285;70786;-87
2023/06/21 11:25:15;;;;;;;9.50;8.10;;;;;;;28.57;59.28;100727.04;106237;1285;59100;-87
2023/06/21 11:28:19;;;;;;;10.10;9.10;;;;;;;28.66;59.07;100720.36;106209;1285;60009;-87
2023/06/21 11:31:07;;;;;;;16.40;8.70;;;;;;;28.77;58.83;100713.66;106168;1285;73399;-87
2023/06/21 11:33:55;;;;;;;9.60;8.70;;;;;;;28.88;58.72;100708.12;105509;1285;67230;-87
2023/06/21 11:36:41;;;;;;;8.80;7.80;;;;;;;28.97;58.60;100709.69;105571;1285;72526;-87
2023/06/21 11:39:28;;;;;;;9.50;8.60;;;;;;;29.02;58.23;100702.06;105526;1285;61306;-87
2023/06/21 11:42:15;;;;;;;9.90;9.00;;;;;;;29.02;57.91;100701.52;105468;1285;61154;-87
2023/06/21 11:45:21;;;;;;;10.20;9.30;;;;;;;29.05;57.84;100705.51;105663;1285;73350;-87
2023/06/21 11:48:12;;;;;;;9.30;8.50;;;;;;;29.07;57.66;100698.36;105637;1285;66603;-87
2023/06/21 11:51:09;;;;;;;9.80;8.90;;;;;;;29.14;57.51;100697.71;105614;1290;71176;-86
2023/06/21 11:53:55;;;;;;;8.90;8.20;;;;;;;29.16;57.32;100698.94;105856;1286;61396;-87
2023/06/21 11:56:42;;;;;;;10.60;9.00;;;;;;;29.17;57.27;100690.66;105573;1289;60086;-86
2023/06/21 11:59:31;;;;;;;19.80;8.70;;;;;;;29.25;57.14;100689.87;105445;1285;73245;-87
2023/06/21 12:02:20;;;;;;;10.20;7.80;;;;;;;29.37;57.16;100686.14;105544;1286;71234;-87
2023/06/21 12:05:07;;;;;;;7.80;7.10;;;;;;;29.44;56.58;100679.32;105408;1288;71911;-87
2023/06/21 12:07:53;;;;;;;8.00;7.40;;;;;;;29.50;56.49;100679.35;105529;1285;61176;-87
2023/06/21 12:10:39;;;;;;;9.40;8.60;;;;;;;29.57;56.08;100684.44;105619;1285;59545;-87
2023/06/21 12:13:29;;;;;;;9.70;7.60;;;;;;;29.55;55.88;100684.73;105284;1285;72999;-87
2023/06/21 12:16:15;;;;;;;8.00;7.30;;;;;;;29.55;55.90;100682.45;105482;1285;69391;-89
2023/06/21 12:19:02;;;;;;;7.90;7.20;;;;;;;29.59;55.68;100680.98;105615;1285;71190;-87
2023/06/21 12:21:48;;;;;;;10.20;9.10;;;;;;;29.60;55.40;100681.06;105442;1288;61293;-87
2023/06/21 12:24:35;;;;;;;9.50;8.00;;;;;;;29.62;55.20;100686.41;105394;1288;61469;-87
2023/06/21 12:27:21;;;;;;;9.10;8.10;;;;;;;29.69;55.01;100684.52;105585;1285;77289;-87
2023/06/21 12:30:08;;;;;;;10.40;9.50;;;;;;;29.80;55.00;100675.58;105459;1286;73338;-87
2023/06/21 12:32:55;;;;;;;9.30;8.50;;;;;;;29.90;54.83;100676.23;105666;1285;71194;-87
2023/06/21 12:35:44;;;;;;;10.20;9.40;;;;;;;29.97;54.53;100675.39;105521;1292;59709;-87
2023/06/21 12:38:33;;;;;;;11.50;10.60;;;;;;;30.01;54.43;100680.59;105634;1285;63072;-87
2023/06/21 12:41:22;;;;;;;10.70;9.60;;;;;;;30.01;54.14;100671.09;105354;1291;74581;-87
2023/06/21 12:44:21;;;;;;;10.40;9.50;;;;;;;29.99;54.05;100673.77;105405;1285;68387;-87
2023/06/21 12:47:07;;;;;;;12.00;10.90;;;;;;;29.98;54.00;100675.98;105450;1292;71910;-87